createdAt,value
2023-04-24T00:00:13.895Z,98.06
2023-04-24T00:01:37.942Z,97.60
2023-04-24T00:03:01.049Z,97.18
2023-04-24T00:04:23.286Z,97.16
2023-04-24T00:05:46.650Z,98.21
2023-04-24T00:07:09.836Z,100.00
2023-04-24T00:08:33.340Z,99.51
2023-04-24T00:09:56.383Z,98.72
2023-04-24T00:11:19.164Z,98.39
2023-04-24T00:12:42.132Z,99.36
2023-04-24T00:14:05.007Z,100.00
2023-04-24T00:15:27.800Z,100.00
2023-04-24T00:16:51.319Z,100.00
2023-04-24T00:18:14.346Z,100.00
2023-04-24T00:19:37.187Z,100.00
2023-04-24T00:20:59.672Z,100.00
2023-04-24T00:22:23.129Z,100.00
2023-04-24T00:23:46.363Z,100.00
2023-04-24T00:25:10.035Z,100.00
2023-04-24T00:26:31.881Z,100.00
2023-04-24T00:27:54.685Z,100.00
2023-04-24T00:29:17.477Z,100.00
2023-04-24T00:30:40.308Z,99.87
2023-04-24T00:32:02.153Z,99.46
2023-04-24T00:33:25.075Z,99.26
2023-04-24T00:34:47.859Z,98.75
2023-04-24T00:36:10.769Z,99.31
2023-04-24T00:37:33.646Z,99.30
2023-04-24T00:38:57.767Z,97.97
2023-04-24T00:40:20.587Z,96.08
2023-04-24T00:42:02.483Z,96.08
2023-04-24T00:43:25.669Z,96.34
2023-04-24T00:44:48.973Z,95.68
2023-04-24T00:46:11.632Z,95.10
2023-04-24T00:47:35.125Z,95.29
2023-04-24T00:48:58.423Z,95.10
2023-04-24T00:50:22.301Z,95.42
2023-04-24T00:51:46.413Z,95.04
2023-04-24T00:53:09.237Z,96.61
2023-04-24T00:54:32.002Z,97.04
2023-04-24T00:55:54.798Z,98.63
2023-04-24T00:57:18.886Z,97.39
2023-04-24T00:58:42.708Z,99.29
2023-04-24T01:00:06.906Z,98.86
2023-04-24T01:01:29.886Z,99.03
2023-04-24T01:02:53.951Z,98.74
2023-04-24T01:04:19.036Z,98.79
2023-04-24T01:05:41.935Z,98.39
2023-04-24T01:07:05.669Z,98.52
2023-04-24T01:08:30.090Z,98.59
2023-04-24T01:09:53.114Z,99.04
2023-04-24T01:11:16.468Z,99.11
2023-04-24T01:12:40.652Z,99.66
2023-04-24T01:14:03.582Z,100.00
2023-04-24T01:15:26.596Z,100.00
2023-04-24T01:16:49.389Z,100.00
2023-04-24T01:18:11.440Z,100.00
2023-04-24T01:19:34.279Z,100.00
2023-04-24T01:20:59.114Z,99.97
2023-04-24T01:22:23.267Z,99.80
2023-04-24T01:23:46.611Z,100.00
2023-04-24T01:25:09.720Z,100.00
2023-04-24T01:26:32.647Z,100.00
2023-04-24T01:27:55.841Z,100.00
2023-04-24T01:29:17.683Z,99.45
2023-04-24T01:30:40.586Z,99.49
2023-04-24T01:32:04.621Z,100.00
2023-04-24T01:33:27.684Z,99.58
2023-04-24T01:34:50.252Z,98.89
2023-04-24T01:36:13.875Z,99.04
2023-04-24T01:37:38.372Z,98.62
2023-04-24T01:39:01.497Z,98.36
2023-04-24T01:40:23.644Z,98.58
2023-04-24T01:41:46.485Z,98.24
2023-04-24T01:43:09.586Z,98.90
2023-04-24T01:44:32.804Z,98.05
2023-04-24T01:45:54.683Z,96.97
2023-04-24T01:47:17.831Z,97.93
2023-04-24T01:48:39.780Z,96.29
2023-04-24T01:50:02.670Z,96.14
2023-04-24T01:51:25.482Z,95.45
2023-04-24T01:52:49.671Z,95.16
2023-04-24T01:54:11.566Z,95.70
2023-04-24T01:55:34.908Z,95.40
2023-04-24T01:56:56.926Z,95.87
2023-04-24T01:58:19.760Z,96.36
2023-04-24T01:59:41.916Z,96.98
2023-04-24T02:01:05.037Z,97.51
2023-04-24T02:02:28.675Z,97.26
2023-04-24T02:03:51.796Z,96.60
2023-04-24T02:05:13.807Z,96.73
2023-04-24T02:06:36.975Z,96.18
2023-04-24T02:08:00.193Z,95.60
2023-04-24T02:09:23.029Z,94.96
2023-04-24T02:10:46.169Z,95.15
2023-04-24T02:12:08.407Z,94.41
2023-04-24T02:13:31.245Z,94.14
2023-04-24T02:14:54.031Z,93.33
2023-04-24T02:16:15.859Z,92.36
2023-04-24T02:17:38.787Z,92.15
2023-04-24T02:19:00.845Z,92.57
2023-04-24T02:20:23.785Z,92.46
2023-04-24T02:21:46.579Z,91.24
2023-04-24T02:23:09.788Z,92.90
2023-04-24T02:24:32.647Z,93.22
2023-04-24T02:25:54.631Z,92.91
2023-04-24T02:27:17.462Z,92.55
2023-04-24T02:28:39.331Z,91.97
2023-04-24T02:30:02.124Z,92.20
2023-04-24T02:31:25.085Z,91.37
2023-04-24T02:32:46.947Z,91.75
2023-04-24T02:34:09.963Z,91.97
2023-04-24T02:35:33.047Z,91.70
2023-04-24T02:36:55.176Z,91.83
2023-04-24T02:38:19.315Z,91.68
2023-04-24T02:39:42.231Z,92.19
2023-04-24T02:41:07.172Z,94.68
2023-04-24T02:42:29.961Z,93.45
2023-04-24T02:43:52.730Z,93.01
2023-04-24T02:45:14.652Z,92.05
2023-04-24T02:46:37.503Z,92.31
2023-04-24T02:47:59.357Z,92.33
2023-04-24T02:49:22.197Z,92.25
2023-04-24T02:50:44.060Z,92.31
2023-04-24T02:52:06.883Z,92.50
2023-04-24T02:53:31.577Z,93.47
2023-04-24T02:54:54.923Z,93.54
2023-04-24T02:56:16.763Z,92.88
2023-04-24T02:57:39.596Z,93.71
2023-04-24T02:59:01.440Z,92.91
2023-04-24T03:00:24.336Z,91.89
2023-04-24T03:01:47.270Z,91.21
2023-04-24T03:03:09.345Z,90.56
2023-04-24T03:04:33.185Z,90.12
2023-04-24T03:05:56.642Z,90.20
2023-04-24T03:07:21.737Z,90.52
2023-04-24T03:08:45.940Z,89.61
2023-04-24T03:10:09.044Z,90.86
2023-04-24T03:11:31.986Z,91.23
2023-04-24T03:12:53.847Z,91.25
2023-04-24T03:14:16.680Z,91.49
2023-04-24T03:15:38.536Z,90.95
2023-04-24T03:17:01.482Z,91.00
2023-04-24T03:18:24.248Z,91.95
2023-04-24T03:19:46.181Z,92.58
2023-04-24T03:21:09.075Z,93.10
2023-04-24T03:22:30.903Z,94.48
2023-04-24T03:23:54.978Z,93.06
2023-04-24T03:25:17.773Z,92.19
2023-04-24T03:26:39.643Z,92.82
2023-04-24T03:28:02.482Z,92.22
2023-04-24T03:29:24.339Z,92.53
2023-04-24T03:30:47.303Z,92.89
2023-04-24T03:32:09.150Z,93.27
2023-04-24T03:33:31.977Z,94.02
2023-04-24T03:34:54.303Z,92.80
2023-04-24T03:36:17.102Z,92.94
2023-04-24T03:37:38.925Z,92.47
2023-04-24T03:39:03.043Z,92.75
2023-04-24T03:40:25.858Z,93.66
2023-04-24T03:41:47.693Z,94.73
2023-04-24T03:43:10.451Z,95.56
2023-04-24T03:44:18.224Z,96.80
2023-04-24T03:45:40.668Z,96.89
2023-04-24T03:47:03.627Z,96.92
2023-04-24T03:48:25.704Z,97.99
2023-04-24T03:49:48.215Z,96.57
2023-04-24T03:51:10.782Z,97.28
2023-04-24T03:52:32.272Z,96.62
2023-04-24T03:53:54.688Z,95.44
2023-04-24T03:55:18.512Z,96.64
2023-04-24T03:56:40.019Z,99.06
2023-04-24T03:58:02.646Z,97.94
2023-04-24T03:59:25.088Z,95.81
2023-04-24T04:00:47.775Z,95.79
2023-04-24T04:02:10.401Z,95.71
2023-04-24T04:03:32.258Z,95.42
2023-04-24T04:04:55.052Z,94.08
2023-04-24T04:06:16.744Z,94.12
2023-04-24T04:07:39.286Z,95.48
2023-04-24T04:09:01.850Z,95.11
2023-04-24T04:10:25.771Z,95.77
2023-04-24T04:11:47.310Z,95.51
2023-04-24T04:13:09.892Z,97.04
2023-04-24T04:14:32.362Z,97.32
2023-04-24T04:15:53.914Z,96.60
2023-04-24T04:17:16.429Z,96.41
2023-04-24T04:18:38.689Z,98.23
2023-04-24T04:20:01.260Z,98.33
2023-04-24T04:21:22.973Z,98.17
2023-04-24T04:22:45.406Z,98.28
2023-04-24T04:24:08.260Z,98.52
2023-04-24T04:25:31.204Z,97.30
2023-04-24T04:26:57.435Z,96.06
2023-04-24T04:28:20.889Z,95.75
2023-04-24T04:29:44.014Z,94.72
2023-04-24T04:31:08.686Z,94.26
2023-04-24T04:32:30.250Z,94.16
2023-04-24T04:33:52.744Z,93.31
2023-04-24T04:35:14.366Z,93.50
2023-04-24T04:36:37.782Z,93.43
2023-04-24T04:38:00.648Z,93.19
2023-04-24T04:39:22.349Z,94.91
2023-04-24T04:40:46.451Z,94.55
2023-04-24T04:42:08.050Z,95.31
2023-04-24T04:43:31.999Z,93.87
2023-04-24T04:44:54.663Z,93.80
2023-04-24T04:46:16.865Z,93.54
2023-04-24T04:47:40.475Z,93.98
2023-04-24T04:49:03.810Z,93.27
2023-04-24T04:50:26.313Z,92.99
2023-04-24T04:51:48.081Z,94.55
2023-04-24T04:53:10.729Z,93.46
2023-04-24T04:54:32.414Z,92.12
2023-04-24T04:55:56.404Z,91.96
2023-04-24T04:57:18.848Z,92.31
2023-04-24T04:58:41.365Z,91.82
2023-04-24T05:00:05.753Z,91.46
2023-04-24T05:01:28.476Z,90.72
2023-04-24T05:02:52.255Z,91.38
2023-04-24T05:04:15.418Z,91.66
2023-04-24T05:05:41.434Z,90.67
2023-04-24T05:07:03.919Z,91.06
2023-04-24T05:08:27.419Z,92.36
2023-04-24T05:09:50.491Z,92.77
2023-04-24T05:11:14.554Z,93.40
2023-04-24T05:12:36.125Z,94.11
2023-04-24T05:13:58.689Z,93.56
2023-04-24T05:15:21.187Z,94.03
2023-04-24T05:16:43.673Z,93.59
2023-04-24T05:18:06.334Z,93.15
2023-04-24T05:19:28.886Z,93.36
2023-04-24T05:20:51.383Z,92.03
2023-04-24T05:22:14.201Z,92.16
2023-04-24T05:23:35.861Z,92.07
2023-04-24T05:24:58.537Z,91.41
2023-04-24T05:26:23.676Z,90.81
2023-04-24T05:27:46.771Z,91.50
2023-04-24T05:29:09.275Z,90.90
2023-04-24T05:30:31.889Z,89.55
2023-04-24T05:31:54.469Z,89.55
2023-04-24T05:33:17.070Z,89.75
2023-04-24T05:34:39.645Z,89.16
2023-04-24T05:36:02.096Z,88.97
2023-04-24T05:37:24.634Z,87.55
2023-04-24T05:38:47.172Z,88.70
2023-04-24T05:40:11.357Z,88.97
2023-04-24T05:41:35.380Z,90.06
2023-04-24T05:42:58.035Z,89.02
2023-04-24T05:44:20.535Z,89.38
2023-04-24T05:45:43.002Z,88.80
2023-04-24T05:47:05.687Z,88.49
2023-04-24T05:48:27.232Z,88.12
2023-04-24T05:49:49.712Z,87.21
2023-04-24T05:51:12.296Z,87.06
2023-04-24T05:52:34.767Z,86.44
2023-04-24T05:53:57.277Z,85.48
2023-04-24T05:55:19.867Z,84.26
2023-04-24T05:56:44.070Z,83.29
2023-04-24T05:58:06.890Z,82.48
2023-04-24T05:59:29.361Z,82.17
2023-04-24T06:00:51.887Z,81.82
2023-04-24T06:02:14.410Z,81.83
2023-04-24T06:03:37.221Z,83.60
2023-04-24T06:05:00.126Z,83.21
2023-04-24T06:06:22.881Z,83.54
2023-04-24T06:07:46.786Z,83.09
2023-04-24T06:09:09.380Z,83.95
2023-04-24T06:10:31.877Z,84.72
2023-04-24T06:11:55.744Z,84.43
2023-04-24T06:13:18.407Z,85.03
2023-04-24T06:14:40.830Z,84.60
2023-04-24T06:16:03.602Z,84.46
2023-04-24T06:17:26.156Z,84.34
2023-04-24T06:18:49.258Z,84.53
2023-04-24T06:20:12.911Z,85.34
2023-04-24T06:21:35.603Z,85.75
2023-04-24T06:22:59.821Z,85.50
2023-04-24T06:24:22.314Z,85.04
2023-04-24T06:25:44.865Z,84.72
2023-04-24T06:27:08.786Z,83.61
2023-04-24T06:28:31.280Z,83.28
2023-04-24T06:29:55.795Z,83.21
2023-04-24T06:31:18.262Z,82.86
2023-04-24T06:32:41.418Z,81.91
2023-04-24T06:34:03.959Z,82.37
2023-04-24T06:35:27.226Z,83.47
2023-04-24T06:36:49.883Z,83.27
2023-04-24T06:38:12.355Z,83.06
2023-04-24T06:39:34.833Z,82.24
2023-04-24T06:40:57.316Z,82.39
2023-04-24T06:42:23.203Z,84.02
2023-04-24T06:43:45.995Z,84.02
2023-04-24T06:45:09.507Z,84.91
2023-04-24T06:46:32.068Z,84.67
2023-04-24T06:47:54.636Z,84.83
2023-04-24T06:49:17.374Z,84.79
2023-04-24T06:50:39.945Z,83.02
2023-04-24T06:52:02.397Z,83.46
2023-04-24T06:53:24.876Z,82.37
2023-04-24T06:54:47.381Z,81.92
2023-04-24T06:56:10.033Z,82.32
2023-04-24T06:57:34.197Z,81.99
2023-04-24T06:58:56.819Z,81.02
2023-04-24T07:00:19.801Z,80.07
2023-04-24T07:01:42.430Z,80.01
2023-04-24T07:03:06.438Z,80.96
2023-04-24T07:04:29.367Z,79.85
2023-04-24T07:05:52.256Z,80.35
2023-04-24T07:07:17.820Z,77.56
2023-04-24T07:08:40.407Z,78.00
2023-04-24T07:10:04.924Z,78.72
2023-04-24T07:11:30.129Z,77.38
2023-04-24T07:12:54.305Z,77.79
2023-04-24T07:14:16.794Z,77.23
2023-04-24T07:15:39.852Z,76.85
2023-04-24T07:17:02.354Z,77.31
2023-04-24T07:18:25.415Z,76.54
2023-04-24T07:19:48.052Z,75.18
2023-04-24T07:21:10.562Z,76.14
2023-04-24T07:22:33.012Z,77.30
2023-04-24T07:23:55.671Z,76.30
2023-04-24T07:25:18.308Z,74.83
2023-04-24T07:26:41.431Z,74.86
2023-04-24T07:28:05.619Z,74.02
2023-04-24T07:29:28.059Z,74.33
2023-04-24T07:30:50.536Z,73.15
2023-04-24T07:32:13.001Z,73.63
2023-04-24T07:33:37.438Z,74.78
2023-04-24T07:35:00.007Z,73.13
2023-04-24T07:36:22.452Z,73.13
2023-04-24T07:37:46.810Z,73.80
2023-04-24T07:39:10.327Z,74.18
2023-04-24T07:40:32.866Z,73.11
2023-04-24T07:41:55.353Z,73.00
2023-04-24T07:43:19.254Z,72.54
2023-04-24T07:44:41.735Z,72.18
2023-04-24T07:46:04.864Z,71.85
2023-04-24T07:47:28.940Z,72.94
2023-04-24T07:49:01.784Z,72.16
2023-04-24T07:50:32.222Z,73.09
2023-04-24T07:51:54.695Z,72.37
2023-04-24T07:53:17.392Z,72.89
2023-04-24T07:54:39.905Z,72.61
2023-04-24T07:56:02.401Z,72.93
2023-04-24T07:57:24.905Z,72.74
2023-04-24T07:58:48.676Z,73.19
2023-04-24T08:00:12.275Z,70.86
2023-04-24T08:01:34.850Z,71.55
2023-04-24T08:02:57.497Z,71.36
2023-04-24T08:04:20.530Z,69.74
2023-04-24T08:05:44.063Z,69.68
2023-04-24T08:07:06.721Z,69.64
2023-04-24T08:08:29.354Z,70.16
2023-04-24T08:09:51.871Z,70.46
2023-04-24T08:11:14.362Z,69.88
2023-04-24T08:12:36.907Z,70.95
2023-04-24T08:14:01.095Z,71.91
2023-04-24T08:15:23.605Z,70.45
2023-04-24T08:16:46.446Z,70.47
2023-04-24T08:18:09.917Z,69.72
2023-04-24T08:19:32.436Z,70.68
2023-04-24T08:20:55.152Z,70.18
2023-04-24T08:22:18.041Z,70.48
2023-04-24T08:23:40.468Z,71.21
2023-04-24T08:25:03.029Z,71.01
2023-04-24T08:26:25.874Z,69.84
2023-04-24T08:27:48.337Z,69.16
2023-04-24T08:29:12.328Z,68.44
2023-04-24T08:30:34.760Z,69.29
2023-04-24T08:31:57.390Z,69.15
2023-04-24T08:33:20.008Z,70.22
2023-04-24T08:34:42.499Z,69.87
2023-04-24T08:36:05.952Z,70.54
2023-04-24T08:37:29.579Z,71.55
2023-04-24T08:38:52.125Z,71.83
2023-04-24T08:40:16.363Z,71.67
2023-04-24T08:41:39.959Z,72.28
2023-04-24T08:43:02.734Z,71.98
2023-04-24T08:44:26.835Z,72.08
2023-04-24T08:45:49.779Z,72.86
2023-04-24T08:47:15.219Z,73.11
2023-04-24T08:48:39.784Z,72.02
2023-04-24T08:50:04.001Z,72.62
2023-04-24T08:51:28.435Z,73.03
2023-04-24T08:52:54.197Z,72.30
2023-04-24T08:54:16.900Z,72.66
2023-04-24T08:55:39.956Z,71.87
2023-04-24T08:57:05.455Z,71.67
2023-04-24T08:58:28.563Z,72.53
2023-04-24T08:59:52.948Z,72.41
2023-04-24T09:01:15.993Z,72.10
2023-04-24T09:02:38.973Z,72.22
2023-04-24T09:04:04.336Z,72.61
2023-04-24T09:05:28.465Z,72.06
2023-04-24T09:06:51.429Z,71.91
2023-04-24T09:08:15.635Z,72.12
2023-04-24T09:09:40.706Z,71.20
2023-04-24T09:11:04.611Z,71.27
2023-04-24T09:12:27.498Z,70.27
2023-04-24T09:13:50.532Z,70.90
2023-04-24T09:15:14.873Z,70.43
2023-04-24T09:16:55.557Z,69.06
2023-04-24T09:18:19.033Z,68.22
2023-04-24T09:19:42.739Z,67.64
2023-04-24T09:21:08.942Z,67.15
2023-04-24T09:22:32.384Z,67.48
2023-04-24T09:24:06.076Z,67.74
2023-04-24T09:25:34.364Z,67.38
2023-04-24T09:26:59.801Z,67.89
2023-04-24T09:28:27.651Z,67.57
2023-04-24T09:29:56.786Z,66.70
2023-04-24T09:31:23.109Z,65.70
2023-04-24T09:32:45.793Z,64.20
2023-04-24T09:34:08.585Z,63.36
2023-04-24T09:35:13.183Z,63.87
2023-04-24T09:36:19.387Z,63.33
2023-04-24T09:37:30.558Z,63.20
2023-04-24T09:38:34.189Z,63.83
2023-04-24T09:39:37.090Z,63.27
2023-04-24T09:40:41.438Z,62.07
2023-04-24T09:41:48.719Z,61.94
2023-04-24T09:42:54.351Z,60.62
2023-04-24T09:43:58.057Z,61.41
2023-04-24T09:45:11.913Z,59.82
2023-04-24T09:46:22.475Z,59.93
2023-04-24T09:47:25.485Z,59.58
2023-04-24T09:48:35.671Z,60.66
2023-04-24T09:49:40.188Z,59.87
2023-04-24T09:50:48.183Z,58.77
2023-04-24T09:51:50.957Z,59.09
2023-04-24T09:52:59.651Z,58.54
2023-04-24T09:54:01.432Z,59.07
2023-04-24T09:55:04.586Z,58.38
2023-04-24T09:56:10.020Z,57.76
2023-04-24T09:57:11.828Z,58.23
2023-04-24T09:58:14.557Z,57.53
2023-04-24T09:59:18.656Z,57.39
2023-04-24T10:00:24.033Z,57.32
2023-04-24T10:01:45.614Z,58.90
2023-04-24T10:02:52.071Z,58.37
2023-04-24T10:03:55.290Z,58.39
2023-04-24T10:05:00.827Z,58.05
2023-04-24T10:06:09.501Z,57.49
2023-04-24T10:07:12.310Z,57.63
2023-04-24T10:08:15.933Z,58.76
2023-04-24T10:09:19.946Z,59.07
2023-04-24T10:10:21.916Z,58.59
2023-04-24T10:11:25.834Z,57.20
2023-04-24T10:12:29.907Z,57.81
2023-04-24T10:13:34.220Z,58.20
2023-04-24T10:14:38.688Z,58.01
2023-04-24T10:15:42.413Z,58.69
2023-04-24T10:16:47.827Z,58.47
2023-04-24T10:17:53.562Z,57.89
2023-04-24T10:18:57.103Z,57.58
2023-04-24T10:20:02.523Z,57.41
2023-04-24T10:21:05.745Z,57.36
2023-04-24T10:22:08.923Z,56.33
2023-04-24T10:23:12.873Z,55.66
2023-04-24T10:24:16.870Z,55.20
2023-04-24T10:25:20.925Z,53.00
2023-04-24T10:26:24.911Z,53.49
2023-04-24T10:27:28.278Z,54.56
2023-04-24T10:28:33.868Z,55.00
2023-04-24T10:29:38.276Z,56.73
2023-04-24T10:30:43.671Z,56.96
2023-04-24T10:31:48.399Z,55.63
2023-04-24T10:32:50.945Z,53.45
2023-04-24T10:33:55.242Z,53.71
2023-04-24T10:34:57.588Z,52.46
2023-04-24T10:36:01.241Z,52.33
2023-04-24T10:37:04.542Z,52.44
2023-04-24T10:38:11.137Z,52.34
2023-04-24T10:39:16.686Z,52.00
2023-04-24T10:40:19.811Z,52.91
2023-04-24T10:41:24.335Z,53.22
2023-04-24T10:42:28.699Z,52.43
2023-04-24T10:43:31.464Z,51.48
2023-04-24T10:44:37.982Z,51.63
2023-04-24T10:45:41.417Z,51.42
2023-04-24T10:46:48.535Z,51.56
2023-04-24T10:48:04.345Z,50.77
2023-04-24T10:49:09.851Z,51.26
2023-04-24T10:50:11.768Z,50.98
2023-04-24T10:51:16.170Z,51.68
2023-04-24T10:52:18.921Z,52.20
2023-04-24T10:53:24.987Z,52.22
2023-04-24T10:54:29.492Z,51.82
2023-04-24T10:55:43.134Z,51.78
2023-04-24T10:56:45.159Z,51.55
2023-04-24T10:58:04.751Z,52.38
2023-04-24T10:59:10.694Z,51.08
2023-04-24T11:00:19.128Z,51.51
2023-04-24T11:01:26.293Z,49.92
2023-04-24T11:02:39.121Z,48.44
2023-04-24T11:03:53.282Z,48.16
2023-04-24T11:04:55.754Z,47.54
2023-04-24T11:06:00.956Z,48.49
2023-04-24T11:07:04.734Z,48.30
2023-04-24T11:08:13.522Z,46.92
2023-04-24T11:09:17.653Z,47.75
2023-04-24T11:10:27.025Z,49.02
2023-04-24T11:11:31.325Z,48.52
2023-04-24T11:12:36.099Z,47.00
2023-04-24T11:14:05.459Z,44.38
2023-04-24T11:15:12.212Z,42.78
2023-04-24T11:16:16.013Z,43.31
2023-04-24T11:17:30.974Z,43.06
2023-04-24T11:18:41.089Z,43.54
2023-04-24T11:19:43.861Z,43.76
2023-04-24T11:20:45.978Z,45.06
2023-04-24T11:21:50.542Z,44.82
2023-04-24T11:22:56.673Z,45.07
2023-04-24T11:23:59.438Z,44.56
2023-04-24T11:25:04.383Z,43.73
2023-04-24T11:26:13.701Z,45.46
2023-04-24T11:27:18.932Z,46.18
2023-04-24T11:28:20.824Z,45.14
2023-04-24T11:29:24.531Z,44.37
2023-04-24T11:30:31.857Z,45.54
2023-04-24T11:31:38.485Z,47.01
2023-04-24T11:32:43.021Z,47.11
2023-04-24T11:33:46.230Z,46.68
2023-04-24T11:34:50.157Z,47.17
2023-04-24T11:35:53.324Z,48.98
2023-04-24T11:36:55.133Z,50.31
2023-04-24T11:39:04.650Z,51.17
2023-04-24T11:40:09.285Z,50.57
2023-04-24T11:41:11.262Z,50.58
2023-04-24T11:42:17.028Z,49.36
2023-04-24T11:43:20.845Z,48.76
2023-04-24T11:44:25.885Z,47.23
2023-04-24T11:45:32.000Z,46.27
2023-04-24T11:46:34.063Z,45.36
2023-04-24T11:47:37.064Z,45.83
2023-04-24T11:48:41.051Z,44.68
2023-04-24T11:49:45.331Z,43.38
2023-04-24T11:50:48.951Z,42.23
2023-04-24T11:51:53.986Z,41.99
2023-04-24T11:52:58.695Z,40.66
2023-04-24T11:54:04.545Z,40.59
2023-04-24T11:55:10.050Z,40.47
2023-04-24T11:56:11.920Z,39.01
2023-04-24T11:57:14.956Z,39.55
2023-04-24T11:58:23.124Z,38.08
2023-04-24T11:59:25.072Z,40.12
2023-04-24T12:00:29.833Z,40.37
2023-04-24T12:01:44.893Z,41.17
2023-04-24T12:02:47.765Z,42.75
2023-04-24T12:03:52.551Z,43.15
2023-04-24T12:04:57.785Z,42.79
2023-04-24T12:06:08.696Z,41.36
2023-04-24T12:07:12.129Z,41.25
2023-04-24T12:08:28.385Z,41.34
2023-04-24T12:09:42.101Z,40.89
2023-04-24T12:10:44.833Z,42.16
2023-04-24T12:11:54.026Z,40.58
2023-04-24T12:12:58.251Z,39.54
2023-04-24T12:14:12.275Z,39.22
2023-04-24T12:15:15.054Z,38.88
2023-04-24T12:16:18.000Z,38.53
2023-04-24T12:17:26.936Z,39.29
2023-04-24T12:18:31.468Z,39.69
2023-04-24T12:19:34.172Z,39.15
2023-04-24T12:20:38.464Z,39.81
2023-04-24T12:21:40.557Z,40.26
2023-04-24T12:22:47.584Z,40.26
2023-04-24T12:23:51.859Z,40.68
2023-04-24T12:24:57.950Z,39.92
2023-04-24T12:26:02.740Z,40.73
2023-04-24T12:27:05.577Z,40.57
2023-04-24T12:28:13.023Z,40.75
2023-04-24T12:29:22.010Z,41.52
2023-04-24T12:30:28.561Z,41.06
2023-04-24T12:31:33.225Z,40.48
2023-04-24T12:32:35.993Z,39.95
2023-04-24T12:33:38.024Z,39.68
2023-04-24T12:34:41.102Z,39.97
2023-04-24T12:35:45.129Z,40.82
2023-04-24T12:36:46.833Z,40.47
2023-04-24T12:37:49.585Z,40.82
2023-04-24T12:38:55.225Z,41.13
2023-04-24T12:40:01.643Z,40.98
2023-04-24T12:41:06.488Z,41.05
2023-04-24T12:42:08.364Z,42.03
2023-04-24T12:43:16.693Z,42.07
2023-04-24T12:44:19.664Z,42.06
2023-04-24T12:45:24.351Z,42.20
2023-04-24T12:46:26.307Z,43.00
2023-04-24T12:47:30.076Z,42.27
2023-04-24T12:48:33.262Z,42.43
2023-04-24T12:49:35.149Z,42.61
2023-04-24T12:50:38.114Z,41.85
2023-04-24T12:51:41.189Z,42.03
2023-04-24T12:52:45.173Z,40.81
2023-04-24T12:53:47.654Z,40.20
2023-04-24T12:54:49.419Z,41.06
2023-04-24T12:55:54.202Z,41.47
2023-04-24T12:56:57.637Z,41.76
2023-04-24T12:58:00.593Z,42.46
2023-04-24T12:59:03.754Z,42.20
2023-04-24T13:00:08.959Z,42.07
2023-04-24T13:01:11.110Z,42.71
2023-04-24T13:02:14.292Z,43.69
2023-04-24T13:03:17.340Z,43.41
2023-04-24T13:04:19.671Z,43.32
2023-04-24T13:05:25.175Z,44.05
2023-04-24T13:06:28.678Z,44.42
2023-04-24T13:07:31.937Z,43.65
2023-04-24T13:08:34.699Z,45.03
2023-04-24T13:09:36.865Z,45.05
2023-04-24T13:10:40.028Z,45.73
2023-04-24T13:11:41.830Z,45.88
2023-04-24T13:12:46.389Z,46.54
2023-04-24T13:13:48.130Z,46.09
2023-04-24T13:14:50.848Z,44.81
2023-04-24T13:15:53.724Z,45.63
2023-04-24T13:16:55.691Z,46.11
2023-04-24T13:17:58.466Z,46.21
2023-04-24T13:19:01.290Z,46.81
2023-04-24T13:20:03.837Z,46.77
2023-04-24T13:21:06.888Z,46.08
2023-04-24T13:22:10.937Z,46.40
2023-04-24T13:23:15.794Z,47.19
2023-04-24T13:24:18.208Z,48.68
2023-04-24T13:25:21.443Z,49.44
2023-04-24T13:26:24.195Z,48.65
2023-04-24T13:27:26.958Z,48.97
2023-04-24T13:28:28.903Z,49.32
2023-04-24T13:29:31.775Z,49.54
2023-04-24T13:30:34.592Z,49.95
2023-04-24T13:31:36.613Z,50.11
2023-04-24T13:32:39.419Z,49.42
2023-04-24T13:33:42.362Z,49.00
2023-04-24T13:34:44.310Z,48.34
2023-04-24T13:35:46.865Z,48.56
2023-04-24T13:36:48.590Z,49.09
2023-04-24T13:37:51.241Z,49.10
2023-04-24T13:38:54.371Z,49.08
2023-04-24T13:39:57.376Z,49.57
2023-04-24T13:40:59.251Z,49.23
2023-04-24T13:42:04.440Z,49.46
2023-04-24T13:43:07.811Z,50.90
2023-04-24T13:44:10.363Z,51.83
2023-04-24T13:45:23.903Z,53.67
2023-04-24T13:46:26.954Z,51.74
2023-04-24T13:47:29.992Z,51.25
2023-04-24T13:48:31.766Z,51.46
2023-04-24T13:49:34.746Z,50.72
2023-04-24T13:50:37.550Z,50.48
2023-04-24T13:51:39.952Z,50.90
2023-04-24T13:52:42.696Z,51.57
2023-04-24T13:53:44.684Z,51.03
2023-04-24T13:54:49.094Z,51.49
2023-04-24T13:55:51.194Z,51.09
2023-04-24T13:56:54.399Z,53.39
2023-04-24T13:57:56.324Z,51.20
2023-04-24T13:58:59.080Z,50.04
2023-04-24T14:00:04.841Z,50.20
2023-04-24T14:01:07.179Z,51.09
2023-04-24T14:02:10.172Z,51.26
2023-04-24T14:03:12.176Z,51.21
2023-04-24T14:04:15.628Z,51.54
2023-04-24T14:05:19.375Z,51.56
2023-04-24T14:06:21.817Z,51.09
2023-04-24T14:07:24.583Z,51.92
2023-04-24T14:08:27.677Z,51.22
2023-04-24T14:09:30.067Z,51.92
2023-04-24T14:10:34.227Z,52.03
2023-04-24T14:11:36.448Z,51.54
2023-04-24T14:12:39.203Z,51.70
2023-04-24T14:13:42.681Z,52.61
2023-04-24T14:14:45.817Z,53.63
2023-04-24T14:15:47.522Z,53.31
2023-04-24T14:16:50.423Z,53.21
2023-04-24T14:17:53.432Z,53.32
2023-04-24T14:18:55.855Z,53.48
2023-04-24T14:20:00.917Z,53.46
2023-04-24T14:21:02.848Z,53.90
2023-04-24T14:22:05.645Z,54.36
2023-04-24T14:23:07.412Z,54.56
2023-04-24T14:24:10.276Z,54.33
2023-04-24T14:25:12.264Z,54.92
2023-04-24T14:26:16.345Z,54.87
2023-04-24T14:27:18.542Z,55.64
2023-04-24T14:28:22.050Z,56.05
2023-04-24T14:29:26.888Z,56.68
2023-04-24T14:30:28.762Z,57.14
2023-04-24T14:31:31.837Z,57.05
2023-04-24T14:32:33.722Z,57.04
2023-04-24T14:33:36.564Z,58.01
2023-04-24T14:34:38.468Z,58.56
2023-04-24T14:35:43.023Z,58.71
2023-04-24T14:36:44.855Z,59.13
2023-04-24T14:37:47.309Z,59.01
2023-04-24T14:38:49.075Z,59.91
2023-04-24T14:40:04.657Z,59.08
2023-04-24T14:41:14.036Z,59.30
2023-04-24T14:42:18.095Z,58.32
2023-04-24T14:43:21.016Z,58.27
2023-04-24T14:44:22.822Z,57.83
2023-04-24T14:45:25.494Z,58.26
2023-04-24T14:46:28.204Z,58.58
2023-04-24T14:47:31.528Z,59.33
2023-04-24T14:48:33.451Z,59.56
2023-04-24T14:49:36.640Z,58.87
2023-04-24T14:50:38.502Z,59.07
2023-04-24T14:51:41.724Z,58.88
2023-04-24T14:52:43.484Z,57.59
2023-04-24T14:53:47.882Z,56.92
2023-04-24T14:54:49.898Z,56.69
2023-04-24T14:55:52.886Z,56.31
2023-04-24T14:56:55.320Z,56.65
2023-04-24T14:57:59.741Z,57.10
2023-04-24T14:59:01.618Z,56.67
2023-04-24T15:00:07.090Z,56.94
2023-04-24T15:01:08.901Z,58.04
2023-04-24T15:02:16.627Z,58.82
2023-04-24T15:03:21.696Z,59.38
2023-04-24T15:04:26.647Z,59.24
2023-04-24T15:05:28.761Z,59.24
2023-04-24T15:06:32.622Z,58.68
2023-04-24T15:07:34.574Z,58.73
2023-04-24T15:08:37.239Z,57.94
2023-04-24T15:09:40.200Z,57.50
2023-04-24T15:10:42.140Z,56.12
2023-04-24T15:11:44.995Z,56.74
2023-04-24T15:12:46.563Z,56.50
2023-04-24T15:13:50.473Z,57.00
2023-04-24T15:14:52.279Z,56.77
2023-04-24T15:15:54.988Z,57.67
2023-04-24T15:16:56.829Z,58.32
2023-04-24T15:17:59.550Z,59.02
2023-04-24T15:19:02.777Z,58.81
2023-04-24T15:20:07.282Z,59.68
2023-04-24T15:21:10.215Z,58.91
2023-04-24T15:22:12.286Z,57.89
2023-04-24T15:23:15.381Z,57.98
2023-04-24T15:24:17.246Z,56.24
2023-04-24T15:25:19.958Z,55.38
2023-04-24T15:26:25.023Z,54.68
2023-04-24T15:27:27.299Z,54.26
2023-04-24T15:28:30.323Z,54.00
2023-04-24T15:29:33.936Z,54.03
2023-04-24T15:30:36.630Z,54.30
2023-04-24T15:31:41.156Z,55.14
2023-04-24T15:32:44.060Z,56.18
2023-04-24T15:33:47.119Z,56.70
2023-04-24T15:34:49.501Z,57.17
2023-04-24T15:35:56.866Z,56.84
2023-04-24T15:36:58.791Z,56.47
2023-04-24T15:38:01.616Z,56.37
2023-04-24T15:39:05.615Z,56.83
2023-04-24T15:40:12.148Z,55.59
2023-04-24T15:41:14.149Z,56.04
2023-04-24T15:42:16.904Z,55.87
2023-04-24T15:43:19.623Z,55.47
2023-04-24T15:44:22.048Z,55.62
2023-04-24T15:45:26.841Z,55.33
2023-04-24T15:46:29.687Z,56.12
2023-04-24T15:47:32.718Z,56.59
2023-04-24T15:48:36.491Z,56.89
2023-04-24T15:49:38.307Z,56.56
2023-04-24T15:50:41.014Z,56.36
2023-04-24T15:51:43.723Z,57.66
2023-04-24T15:52:46.565Z,57.11
2023-04-24T15:53:48.600Z,57.18
2023-04-24T15:54:51.613Z,56.91
2023-04-24T15:55:53.565Z,56.98
2023-04-24T15:56:56.929Z,56.87
2023-04-24T15:57:59.672Z,56.71